sensor_id;sensor_type;location;lat;lon;timestamp;temperature;humidity
71668;DHT22;59504;54.806;9.640;2023-02-03T00:00:24;5.00;80.00
71668;DHT22;59504;54.806;9.640;2023-02-03T00:02:45;4.90;80.20
71668;DHT22;59504;54.806;9.640;2023-02-03T00:05:04;5.00;80.10
71668;DHT22;59504;54.806;9.640;2023-02-03T00:07:23;5.00;80.40
71668;DHT22;59504;54.806;9.640;2023-02-03T00:09:42;5.10;80.20
71668;DHT22;59504;54.806;9.640;2023-02-03T00:12:02;5.10;80.60
71668;DHT22;59504;54.806;9.640;2023-02-03T00:14:21;5.10;80.60
71668;DHT22;59504;54.806;9.640;2023-02-03T00:16:40;5.10;81.00
71668;DHT22;59504;54.806;9.640;2023-02-03T00:18:59;5.20;81.20
71668;DHT22;59504;54.806;9.640;2023-02-03T00:21:18;5.20;81.30
71668;DHT22;59504;54.806;9.640;2023-02-03T00:23:38;5.20;81.40
71668;DHT22;59504;54.806;9.640;2023-02-03T00:26:04;5.20;81.60
71668;DHT22;59504;54.806;9.640;2023-02-03T00:28:24;5.30;82.10
71668;DHT22;59504;54.806;9.640;2023-02-03T00:30:46;5.40;82.40
71668;DHT22;59504;54.806;9.640;2023-02-03T00:33:05;5.50;83.20
71668;DHT22;59504;54.806;9.640;2023-02-03T00:35:25;5.50;83.90
71668;DHT22;59504;54.806;9.640;2023-02-03T00:37:50;5.60;84.10
71668;DHT22;59504;54.806;9.640;2023-02-03T00:40:11;5.70;84.20
71668;DHT22;59504;54.806;9.640;2023-02-03T00:42:32;5.80;84.50
71668;DHT22;59504;54.806;9.640;2023-02-03T00:44:52;5.80;84.80
71668;DHT22;59504;54.806;9.640;2023-02-03T00:47:11;5.90;84.60
71668;DHT22;59504;54.806;9.640;2023-02-03T00:49:30;6.00;84.50
71668;DHT22;59504;54.806;9.640;2023-02-03T00:51:50;6.00;84.70
71668;DHT22;59504;54.806;9.640;2023-02-03T00:54:09;6.10;84.50
71668;DHT22;59504;54.806;9.640;2023-02-03T00:56:28;6.10;84.30
71668;DHT22;59504;54.806;9.640;2023-02-03T00:58:47;6.20;84.30
71668;DHT22;59504;54.806;9.640;2023-02-03T01:01:07;6.20;84.20
71668;DHT22;59504;54.806;9.640;2023-02-03T01:03:26;6.30;84.10
71668;DHT22;59504;54.806;9.640;2023-02-03T01:05:45;6.30;84.20
71668;DHT22;59504;54.806;9.640;2023-02-03T01:08:04;6.40;84.10
71668;DHT22;59504;54.806;9.640;2023-02-03T01:10:23;6.40;84.00
71668;DHT22;59504;54.806;9.640;2023-02-03T01:12:43;6.40;84.00
71668;DHT22;59504;54.806;9.640;2023-02-03T01:15:02;6.40;84.00
71668;DHT22;59504;54.806;9.640;2023-02-03T01:17:21;6.50;83.90
71668;DHT22;59504;54.806;9.640;2023-02-03T01:19:40;6.50;83.80
71668;DHT22;59504;54.806;9.640;2023-02-03T01:21:59;6.50;83.70
71668;DHT22;59504;54.806;9.640;2023-02-03T01:24:18;6.50;83.70
71668;DHT22;59504;54.806;9.640;2023-02-03T01:26:37;6.60;83.60
71668;DHT22;59504;54.806;9.640;2023-02-03T01:28:58;6.60;83.50
71668;DHT22;59504;54.806;9.640;2023-02-03T01:31:21;6.60;83.60
71668;DHT22;59504;54.806;9.640;2023-02-03T01:33:41;6.60;83.60
71668;DHT22;59504;54.806;9.640;2023-02-03T01:36:00;6.60;83.50
71668;DHT22;59504;54.806;9.640;2023-02-03T01:38:19;6.60;83.50
71668;DHT22;59504;54.806;9.640;2023-02-03T01:40:45;6.60;83.50
71668;DHT22;59504;54.806;9.640;2023-02-03T01:43:04;6.70;83.50
71668;DHT22;59504;54.806;9.640;2023-02-03T01:45:23;6.70;83.40
71668;DHT22;59504;54.806;9.640;2023-02-03T01:47:48;6.70;83.40
71668;DHT22;59504;54.806;9.640;2023-02-03T01:50:30;6.70;83.30
71668;DHT22;59504;54.806;9.640;2023-02-03T01:52:55;6.70;83.30
71668;DHT22;59504;54.806;9.640;2023-02-03T01:55:16;6.80;83.30
71668;DHT22;59504;54.806;9.640;2023-02-03T01:57:42;6.80;83.50
71668;DHT22;59504;54.806;9.640;2023-02-03T02:00:05;6.80;82.90
71668;DHT22;59504;54.806;9.640;2023-02-03T02:02:25;6.80;82.90
71668;DHT22;59504;54.806;9.640;2023-02-03T02:05:07;6.80;83.00
71668;DHT22;59504;54.806;9.640;2023-02-03T02:07:28;6.80;83.10
71668;DHT22;59504;54.806;9.640;2023-02-03T02:09:48;6.80;83.20
71668;DHT22;59504;54.806;9.640;2023-02-03T02:12:09;6.80;83.00
71668;DHT22;59504;54.806;9.640;2023-02-03T02:14:28;6.80;82.90
71668;DHT22;59504;54.806;9.640;2023-02-03T02:17:10;6.80;82.90
71668;DHT22;59504;54.806;9.640;2023-02-03T02:20:02;6.80;82.90
71668;DHT22;59504;54.806;9.640;2023-02-03T02:25:39;6.90;82.90
71668;DHT22;59504;54.806;9.640;2023-02-03T02:35:55;6.90;82.80
71668;DHT22;59504;54.806;9.640;2023-02-03T02:38:24;7.00;82.90
71668;DHT22;59504;54.806;9.640;2023-02-03T02:41:04;6.90;82.80
71668;DHT22;59504;54.806;9.640;2023-02-03T02:43:40;6.90;82.90
71668;DHT22;59504;54.806;9.640;2023-02-03T02:46:11;6.90;82.90
71668;DHT22;59504;54.806;9.640;2023-02-03T02:49:03;6.90;83.00
71668;DHT22;59504;54.806;9.640;2023-02-03T02:51:26;6.90;83.20
71668;DHT22;59504;54.806;9.640;2023-02-03T02:54:02;6.90;83.00
71668;DHT22;59504;54.806;9.640;2023-02-03T02:56:24;6.90;83.20
71668;DHT22;59504;54.806;9.640;2023-02-03T02:58:47;6.90;83.20
71668;DHT22;59504;54.806;9.640;2023-02-03T03:20:26;7.00;83.20
71668;DHT22;59504;54.806;9.640;2023-02-03T03:22:50;7.00;83.40
71668;DHT22;59504;54.806;9.640;2023-02-03T03:25:23;6.90;83.70
71668;DHT22;59504;54.806;9.640;2023-02-03T03:27:58;7.00;83.70
71668;DHT22;59504;54.806;9.640;2023-02-03T03:30:34;7.00;83.60
71668;DHT22;59504;54.806;9.640;2023-02-03T03:32:54;7.00;83.70
71668;DHT22;59504;54.806;9.640;2023-02-03T03:35:15;7.00;83.70
71668;DHT22;59504;54.806;9.640;2023-02-03T03:37:44;7.00;83.80
71668;DHT22;59504;54.806;9.640;2023-02-03T03:40:25;7.00;83.80
71668;DHT22;59504;54.806;9.640;2023-02-03T03:42:56;7.00;83.70
71668;DHT22;59504;54.806;9.640;2023-02-03T03:48:18;7.00;83.80
71668;DHT22;59504;54.806;9.640;2023-02-03T03:51:14;7.00;83.80
71668;DHT22;59504;54.806;9.640;2023-02-03T03:53:38;7.00;83.80
71668;DHT22;59504;54.806;9.640;2023-02-03T03:56:00;7.00;83.70
71668;DHT22;59504;54.806;9.640;2023-02-03T03:58:25;7.00;83.80
71668;DHT22;59504;54.806;9.640;2023-02-03T04:00:47;7.10;83.90
71668;DHT22;59504;54.806;9.640;2023-02-03T04:03:14;7.10;83.90
71668;DHT22;59504;54.806;9.640;2023-02-03T04:05:34;7.00;83.80
71668;DHT22;59504;54.806;9.640;2023-02-03T04:07:53;7.00;83.80
71668;DHT22;59504;54.806;9.640;2023-02-03T04:10:34;7.00;83.90
71668;DHT22;59504;54.806;9.640;2023-02-03T04:12:54;7.10;83.90
71668;DHT22;59504;54.806;9.640;2023-02-03T04:15:13;7.10;83.70
71668;DHT22;59504;54.806;9.640;2023-02-03T04:17:33;7.10;83.70
71668;DHT22;59504;54.806;9.640;2023-02-03T04:19:54;7.10;83.60
71668;DHT22;59504;54.806;9.640;2023-02-03T04:22:13;7.10;83.60
71668;DHT22;59504;54.806;9.640;2023-02-03T04:24:32;7.10;83.40
71668;DHT22;59504;54.806;9.640;2023-02-03T04:26:52;7.10;83.40
71668;DHT22;59504;54.806;9.640;2023-02-03T04:29:11;7.10;83.20
71668;DHT22;59504;54.806;9.640;2023-02-03T04:31:30;7.10;83.10
71668;DHT22;59504;54.806;9.640;2023-02-03T04:33:49;7.10;83.10
71668;DHT22;59504;54.806;9.640;2023-02-03T04:36:08;7.20;83.10
71668;DHT22;59504;54.806;9.640;2023-02-03T04:38:27;7.10;83.00
71668;DHT22;59504;54.806;9.640;2023-02-03T04:40:47;7.10;83.00
71668;DHT22;59504;54.806;9.640;2023-02-03T04:43:06;7.10;83.10
71668;DHT22;59504;54.806;9.640;2023-02-03T04:45:26;7.20;83.10
71668;DHT22;59504;54.806;9.640;2023-02-03T04:47:50;7.20;83.00
71668;DHT22;59504;54.806;9.640;2023-02-03T04:50:10;7.20;83.70
71668;DHT22;59504;54.806;9.640;2023-02-03T04:52:29;7.30;83.00
71668;DHT22;59504;54.806;9.640;2023-02-03T04:54:48;7.20;83.70
71668;DHT22;59504;54.806;9.640;2023-02-03T04:57:07;7.30;83.00
71668;DHT22;59504;54.806;9.640;2023-02-03T04:59:26;7.30;83.00
71668;DHT22;59504;54.806;9.640;2023-02-03T05:01:46;7.20;82.90
71668;DHT22;59504;54.806;9.640;2023-02-03T05:04:05;7.30;83.00
71668;DHT22;59504;54.806;9.640;2023-02-03T05:06:26;7.30;82.90
71668;DHT22;59504;54.806;9.640;2023-02-03T05:08:46;7.30;82.90
71668;DHT22;59504;54.806;9.640;2023-02-03T05:11:05;7.30;83.00
71668;DHT22;59504;54.806;9.640;2023-02-03T05:13:24;7.30;82.80
71668;DHT22;59504;54.806;9.640;2023-02-03T05:15:43;7.30;82.90
71668;DHT22;59504;54.806;9.640;2023-02-03T05:18:02;7.30;82.90
71668;DHT22;59504;54.806;9.640;2023-02-03T05:20:21;7.30;83.10
71668;DHT22;59504;54.806;9.640;2023-02-03T05:22:40;7.20;83.00
71668;DHT22;59504;54.806;9.640;2023-02-03T05:25:00;7.30;83.00
71668;DHT22;59504;54.806;9.640;2023-02-03T05:27:20;7.30;83.10
71668;DHT22;59504;54.806;9.640;2023-02-03T05:29:39;7.30;83.00
71668;DHT22;59504;54.806;9.640;2023-02-03T05:31:58;7.30;83.00
71668;DHT22;59504;54.806;9.640;2023-02-03T05:34:17;7.30;83.00
71668;DHT22;59504;54.806;9.640;2023-02-03T05:36:36;7.30;83.20
71668;DHT22;59504;54.806;9.640;2023-02-03T05:38:55;7.30;83.30
71668;DHT22;59504;54.806;9.640;2023-02-03T05:41:14;7.30;83.40
71668;DHT22;59504;54.806;9.640;2023-02-03T05:43:52;7.20;83.50
71668;DHT22;59504;54.806;9.640;2023-02-03T05:46:11;7.20;83.70
71668;DHT22;59504;54.806;9.640;2023-02-03T05:48:31;7.20;83.90
71668;DHT22;59504;54.806;9.640;2023-02-03T05:50:50;7.20;83.90
71668;DHT22;59504;54.806;9.640;2023-02-03T05:53:10;7.20;84.00
71668;DHT22;59504;54.806;9.640;2023-02-03T05:55:29;7.30;84.00
71668;DHT22;59504;54.806;9.640;2023-02-03T05:57:49;7.20;84.00
71668;DHT22;59504;54.806;9.640;2023-02-03T06:00:09;7.30;84.30
71668;DHT22;59504;54.806;9.640;2023-02-03T06:02:28;7.20;84.20
71668;DHT22;59504;54.806;9.640;2023-02-03T06:04:47;7.30;84.30
71668;DHT22;59504;54.806;9.640;2023-02-03T06:07:06;7.20;84.30
71668;DHT22;59504;54.806;9.640;2023-02-03T06:09:25;7.30;84.40
71668;DHT22;59504;54.806;9.640;2023-02-03T06:11:44;7.20;84.40
71668;DHT22;59504;54.806;9.640;2023-02-03T06:14:04;7.30;84.40
71668;DHT22;59504;54.806;9.640;2023-02-03T06:16:24;7.20;84.50
71668;DHT22;59504;54.806;9.640;2023-02-03T06:18:44;7.20;84.60
71668;DHT22;59504;54.806;9.640;2023-02-03T06:21:03;7.20;84.60
71668;DHT22;59504;54.806;9.640;2023-02-03T06:23:22;7.30;84.70
71668;DHT22;59504;54.806;9.640;2023-02-03T06:25:42;7.30;84.60
71668;DHT22;59504;54.806;9.640;2023-02-03T06:28:01;7.30;84.60
71668;DHT22;59504;54.806;9.640;2023-02-03T06:30:20;7.20;84.40
71668;DHT22;59504;54.806;9.640;2023-02-03T06:32:41;7.20;84.30
71668;DHT22;59504;54.806;9.640;2023-02-03T06:35:01;7.20;84.10
71668;DHT22;59504;54.806;9.640;2023-02-03T06:37:20;7.20;83.90
71668;DHT22;59504;54.806;9.640;2023-02-03T06:39:39;7.20;83.60
71668;DHT22;59504;54.806;9.640;2023-02-03T06:41:58;7.20;83.60
71668;DHT22;59504;54.806;9.640;2023-02-03T06:44:17;7.30;83.70
71668;DHT22;59504;54.806;9.640;2023-02-03T06:46:37;7.20;83.40
71668;DHT22;59504;54.806;9.640;2023-02-03T06:48:56;7.20;83.40
71668;DHT22;59504;54.806;9.640;2023-02-03T06:51:15;7.20;83.20
71668;DHT22;59504;54.806;9.640;2023-02-03T06:53:34;7.20;83.10
71668;DHT22;59504;54.806;9.640;2023-02-03T06:55:53;7.20;83.00
71668;DHT22;59504;54.806;9.640;2023-02-03T06:58:12;7.20;82.80
71668;DHT22;59504;54.806;9.640;2023-02-03T07:00:31;7.10;82.50
71668;DHT22;59504;54.806;9.640;2023-02-03T07:02:55;7.10;82.30
71668;DHT22;59504;54.806;9.640;2023-02-03T07:05:14;7.20;82.10
71668;DHT22;59504;54.806;9.640;2023-02-03T07:07:34;7.10;81.50
71668;DHT22;59504;54.806;9.640;2023-02-03T07:09:57;7.10;80.80
71668;DHT22;59504;54.806;9.640;2023-02-03T07:12:33;7.10;80.00
71668;DHT22;59504;54.806;9.640;2023-02-03T07:14:54;7.10;79.50
71668;DHT22;59504;54.806;9.640;2023-02-03T07:17:13;7.10;79.40
71668;DHT22;59504;54.806;9.640;2023-02-03T07:19:32;7.00;80.10
71668;DHT22;59504;54.806;9.640;2023-02-03T07:21:51;7.10;79.10
71668;DHT22;59504;54.806;9.640;2023-02-03T07:24:14;7.10;78.90
71668;DHT22;59504;54.806;9.640;2023-02-03T07:26:35;7.10;78.50
71668;DHT22;59504;54.806;9.640;2023-02-03T07:28:54;7.00;78.10
71668;DHT22;59504;54.806;9.640;2023-02-03T07:31:14;7.00;77.90
71668;DHT22;59504;54.806;9.640;2023-02-03T07:33:33;6.90;77.50
71668;DHT22;59504;54.806;9.640;2023-02-03T07:35:54;6.90;77.30
71668;DHT22;59504;54.806;9.640;2023-02-03T07:38:13;6.90;76.90
71668;DHT22;59504;54.806;9.640;2023-02-03T07:40:32;6.90;76.90
71668;DHT22;59504;54.806;9.640;2023-02-03T07:42:51;6.90;77.20
71668;DHT22;59504;54.806;9.640;2023-02-03T07:45:17;6.90;76.40
71668;DHT22;59504;54.806;9.640;2023-02-03T07:47:37;6.90;76.40
71668;DHT22;59504;54.806;9.640;2023-02-03T07:49:59;6.80;76.30
71668;DHT22;59504;54.806;9.640;2023-02-03T07:52:20;6.80;76.30
71668;DHT22;59504;54.806;9.640;2023-02-03T07:54:40;6.90;76.50
71668;DHT22;59504;54.806;9.640;2023-02-03T07:56:59;6.70;76.50
71668;DHT22;59504;54.806;9.640;2023-02-03T07:59:18;6.70;76.50
71668;DHT22;59504;54.806;9.640;2023-02-03T08:01:37;6.70;76.50
71668;DHT22;59504;54.806;9.640;2023-02-03T08:03:56;6.70;76.40
71668;DHT22;59504;54.806;9.640;2023-02-03T08:06:15;6.70;76.00
71668;DHT22;59504;54.806;9.640;2023-02-03T08:08:35;6.70;76.00
71668;DHT22;59504;54.806;9.640;2023-02-03T08:10:54;6.70;75.70
71668;DHT22;59504;54.806;9.640;2023-02-03T08:13:14;6.60;75.10
71668;DHT22;59504;54.806;9.640;2023-02-03T08:15:34;6.70;75.00
71668;DHT22;59504;54.806;9.640;2023-02-03T08:17:53;6.60;73.90
71668;DHT22;59504;54.806;9.640;2023-02-03T08:20:12;6.60;73.80
71668;DHT22;59504;54.806;9.640;2023-02-03T08:22:31;6.60;73.10
71668;DHT22;59504;54.806;9.640;2023-02-03T08:24:50;6.50;72.60
71668;DHT22;59504;54.806;9.640;2023-02-03T08:27:10;6.50;72.50
71668;DHT22;59504;54.806;9.640;2023-02-03T08:29:30;6.50;72.50
71668;DHT22;59504;54.806;9.640;2023-02-03T08:31:49;6.50;72.40
71668;DHT22;59504;54.806;9.640;2023-02-03T08:34:08;6.50;72.20
71668;DHT22;59504;54.806;9.640;2023-02-03T08:36:30;6.50;72.10
71668;DHT22;59504;54.806;9.640;2023-02-03T08:38:52;6.50;72.10
71668;DHT22;59504;54.806;9.640;2023-02-03T08:41:15;6.50;71.80
71668;DHT22;59504;54.806;9.640;2023-02-03T08:43:41;6.50;71.80
71668;DHT22;59504;54.806;9.640;2023-02-03T08:46:04;6.60;72.10
71668;DHT22;59504;54.806;9.640;2023-02-03T08:48:24;6.50;72.00
71668;DHT22;59504;54.806;9.640;2023-02-03T08:50:43;6.60;72.10
71668;DHT22;59504;54.806;9.640;2023-02-03T08:53:10;6.50;71.60
71668;DHT22;59504;54.806;9.640;2023-02-03T08:55:29;6.50;72.50
71668;DHT22;59504;54.806;9.640;2023-02-03T08:57:48;6.40;73.40
71668;DHT22;59504;54.806;9.640;2023-02-03T09:00:08;6.30;73.30
71668;DHT22;59504;54.806;9.640;2023-02-03T09:02:31;6.20;73.20
71668;DHT22;59504;54.806;9.640;2023-02-03T09:04:50;6.10;73.70
71668;DHT22;59504;54.806;9.640;2023-02-03T09:07:14;5.90;74.10
71668;DHT22;59504;54.806;9.640;2023-02-03T09:09:34;5.90;74.80
71668;DHT22;59504;54.806;9.640;2023-02-03T09:11:54;5.70;75.70
71668;DHT22;59504;54.806;9.640;2023-02-03T09:14:18;5.70;76.70
71668;DHT22;59504;54.806;9.640;2023-02-03T09:16:38;5.60;77.40
71668;DHT22;59504;54.806;9.640;2023-02-03T09:18:57;5.50;78.20
71668;DHT22;59504;54.806;9.640;2023-02-03T09:21:17;5.50;78.70
71668;DHT22;59504;54.806;9.640;2023-02-03T09:23:36;5.40;78.80
71668;DHT22;59504;54.806;9.640;2023-02-03T09:26:04;5.40;78.80
71668;DHT22;59504;54.806;9.640;2023-02-03T09:28:26;5.40;78.70
71668;DHT22;59504;54.806;9.640;2023-02-03T09:30:45;5.40;78.80
71668;DHT22;59504;54.806;9.640;2023-02-03T09:33:05;5.40;78.90
71668;DHT22;59504;54.806;9.640;2023-02-03T09:35:24;5.40;79.10
71668;DHT22;59504;54.806;9.640;2023-02-03T09:37:45;5.40;79.10
71668;DHT22;59504;54.806;9.640;2023-02-03T09:40:21;5.50;79.20
71668;DHT22;59504;54.806;9.640;2023-02-03T09:45:27;5.60;79.30
71668;DHT22;59504;54.806;9.640;2023-02-03T09:47:47;5.60;79.30
71668;DHT22;59504;54.806;9.640;2023-02-03T09:50:19;5.70;79.10
71668;DHT22;59504;54.806;9.640;2023-02-03T09:52:40;5.70;78.70
71668;DHT22;59504;54.806;9.640;2023-02-03T09:57:43;5.90;78.30
71668;DHT22;59504;54.806;9.640;2023-02-03T10:00:16;6.00;78.40
71668;DHT22;59504;54.806;9.640;2023-02-03T10:03:10;6.00;78.20
71668;DHT22;59504;54.806;9.640;2023-02-03T10:06:00;6.10;77.90
71668;DHT22;59504;54.806;9.640;2023-02-03T10:08:55;6.20;77.60
71668;DHT22;59504;54.806;9.640;2023-02-03T10:11:46;6.20;77.40
71668;DHT22;59504;54.806;9.640;2023-02-03T10:17:11;6.30;76.30
71668;DHT22;59504;54.806;9.640;2023-02-03T10:19:50;6.30;75.60
71668;DHT22;59504;54.806;9.640;2023-02-03T10:22:20;6.30;75.30
71668;DHT22;59504;54.806;9.640;2023-02-03T10:27:17;6.40;74.80
71668;DHT22;59504;54.806;9.640;2023-02-03T10:29:38;6.50;74.90
71668;DHT22;59504;54.806;9.640;2023-02-03T10:32:07;6.50;74.30
71668;DHT22;59504;54.806;9.640;2023-02-03T10:34:27;6.50;74.00
71668;DHT22;59504;54.806;9.640;2023-02-03T10:39:51;6.60;74.00
71668;DHT22;59504;54.806;9.640;2023-02-03T10:42:14;6.60;73.80
71668;DHT22;59504;54.806;9.640;2023-02-03T10:44:47;6.70;73.60
71668;DHT22;59504;54.806;9.640;2023-02-03T10:46:57;6.80;73.40
71668;DHT22;59504;54.806;9.640;2023-02-03T10:49:09;6.90;73.50
71668;DHT22;59504;54.806;9.640;2023-02-03T10:51:43;6.90;73.00
71668;DHT22;59504;54.806;9.640;2023-02-03T10:53:54;6.90;73.20
71668;DHT22;59504;54.806;9.640;2023-02-03T10:56:09;7.00;72.90
71668;DHT22;59504;54.806;9.640;2023-02-03T10:58:26;7.00;72.80
71668;DHT22;59504;54.806;9.640;2023-02-03T11:00:36;7.00;72.00
71668;DHT22;59504;54.806;9.640;2023-02-03T11:02:45;6.90;72.10
71668;DHT22;59504;54.806;9.640;2023-02-03T11:05:19;7.00;72.10
71668;DHT22;59504;54.806;9.640;2023-02-03T11:07:25;7.00;71.90
71668;DHT22;59504;54.806;9.640;2023-02-03T11:11:40;7.00;71.10
71668;DHT22;59504;54.806;9.640;2023-02-03T11:14:10;7.00;71.10
71668;DHT22;59504;54.806;9.640;2023-02-03T11:16:15;7.00;70.80
71668;DHT22;59504;54.806;9.640;2023-02-03T11:21:25;6.90;70.50
71668;DHT22;59504;54.806;9.640;2023-02-03T11:23:27;6.90;70.90
71668;DHT22;59504;54.806;9.640;2023-02-03T11:25:48;7.00;71.00
71668;DHT22;59504;54.806;9.640;2023-02-03T11:28:10;7.00;70.70
71668;DHT22;59504;54.806;9.640;2023-02-03T11:30:26;6.90;70.50
71668;DHT22;59504;54.806;9.640;2023-02-03T11:32:50;7.00;70.60
71668;DHT22;59504;54.806;9.640;2023-02-03T11:35:16;6.90;70.80
71668;DHT22;59504;54.806;9.640;2023-02-03T11:37:42;6.90;71.00
71668;DHT22;59504;54.806;9.640;2023-02-03T11:42:58;6.80;70.80
71668;DHT22;59504;54.806;9.640;2023-02-03T11:45:38;6.80;71.30
71668;DHT22;59504;54.806;9.640;2023-02-03T12:06:55;6.70;71.80
71668;DHT22;59504;54.806;9.640;2023-02-03T12:09:40;6.70;71.80
71668;DHT22;59504;54.806;9.640;2023-02-03T12:17:59;6.70;71.30
71668;DHT22;59504;54.806;9.640;2023-02-03T12:20:39;6.60;71.30
71668;DHT22;59504;54.806;9.640;2023-02-03T12:23:30;6.60;71.50
71668;DHT22;59504;54.806;9.640;2023-02-03T12:26:22;6.70;71.60
71668;DHT22;59504;54.806;9.640;2023-02-03T12:29:11;6.60;71.00
71668;DHT22;59504;54.806;9.640;2023-02-03T12:31:49;6.60;71.20
71668;DHT22;59504;54.806;9.640;2023-02-03T12:34:18;6.60;71.10
71668;DHT22;59504;54.806;9.640;2023-02-03T12:36:35;6.60;71.10
71668;DHT22;59504;54.806;9.640;2023-02-03T12:39:25;6.60;71.40
71668;DHT22;59504;54.806;9.640;2023-02-03T12:41:56;6.60;71.20
71668;DHT22;59504;54.806;9.640;2023-02-03T12:44:45;6.70;71.30
71668;DHT22;59504;54.806;9.640;2023-02-03T12:47:17;6.60;71.00
71668;DHT22;59504;54.806;9.640;2023-02-03T12:49:45;6.60;71.20
71668;DHT22;59504;54.806;9.640;2023-02-03T12:58:06;6.60;71.00
71668;DHT22;59504;54.806;9.640;2023-02-03T13:01:08;6.70;71.00
71668;DHT22;59504;54.806;9.640;2023-02-03T13:08:38;6.80;70.60
71668;DHT22;59504;54.806;9.640;2023-02-03T13:10:54;6.80;70.60
71668;DHT22;59504;54.806;9.640;2023-02-03T13:12:57;6.80;70.10
71668;DHT22;59504;54.806;9.640;2023-02-03T13:17:29;6.80;69.90
71668;DHT22;59504;54.806;9.640;2023-02-03T13:19:39;6.80;69.50
71668;DHT22;59504;54.806;9.640;2023-02-03T13:21:41;6.80;69.10
71668;DHT22;59504;54.806;9.640;2023-02-03T13:23:42;6.90;69.10
71668;DHT22;59504;54.806;9.640;2023-02-03T13:29:17;6.90;68.20
71668;DHT22;59504;54.806;9.640;2023-02-03T13:32:12;6.90;67.90
71668;DHT22;59504;54.806;9.640;2023-02-03T13:37:47;6.90;67.30
71668;DHT22;59504;54.806;9.640;2023-02-03T13:42:41;6.90;68.20
71668;DHT22;59504;54.806;9.640;2023-02-03T13:44:47;7.00;67.70
71668;DHT22;59504;54.806;9.640;2023-02-03T13:46:51;7.00;67.50
71668;DHT22;59504;54.806;9.640;2023-02-03T13:49:03;7.00;67.40
71668;DHT22;59504;54.806;9.640;2023-02-03T13:51:22;7.10;67.50
71668;DHT22;59504;54.806;9.640;2023-02-03T13:53:25;7.00;67.60
71668;DHT22;59504;54.806;9.640;2023-02-03T13:55:58;7.00;67.80
71668;DHT22;59504;54.806;9.640;2023-02-03T13:58:03;7.00;67.60
71668;DHT22;59504;54.806;9.640;2023-02-03T14:03:18;7.00;67.80
71668;DHT22;59504;54.806;9.640;2023-02-03T14:05:47;7.00;67.80
71668;DHT22;59504;54.806;9.640;2023-02-03T14:10:27;7.00;68.30
71668;DHT22;59504;54.806;9.640;2023-02-03T14:22:47;6.90;69.20
71668;DHT22;59504;54.806;9.640;2023-02-03T14:25:08;6.90;69.40
71668;DHT22;59504;54.806;9.640;2023-02-03T14:27:29;6.80;68.80
71668;DHT22;59504;54.806;9.640;2023-02-03T14:32:58;6.80;70.00
71668;DHT22;59504;54.806;9.640;2023-02-03T14:35:29;6.80;70.30
71668;DHT22;59504;54.806;9.640;2023-02-03T14:37:31;6.80;70.50
71668;DHT22;59504;54.806;9.640;2023-02-03T14:42:16;6.70;70.90
71668;DHT22;59504;54.806;9.640;2023-02-03T14:49:34;6.60;71.80
71668;DHT22;59504;54.806;9.640;2023-02-03T14:52:02;6.60;72.50
71668;DHT22;59504;54.806;9.640;2023-02-03T14:54:16;6.50;73.20
71668;DHT22;59504;54.806;9.640;2023-02-03T15:04:25;6.40;75.40
71668;DHT22;59504;54.806;9.640;2023-02-03T15:06:49;6.40;76.00
71668;DHT22;59504;54.806;9.640;2023-02-03T15:11:57;6.40;76.20
71668;DHT22;59504;54.806;9.640;2023-02-03T15:16:44;6.30;76.60
71668;DHT22;59504;54.806;9.640;2023-02-03T15:19:18;6.20;76.40
71668;DHT22;59504;54.806;9.640;2023-02-03T15:21:20;6.20;76.40
71668;DHT22;59504;54.806;9.640;2023-02-03T15:23:29;6.10;76.40
71668;DHT22;59504;54.806;9.640;2023-02-03T15:25:36;6.10;76.50
71668;DHT22;59504;54.806;9.640;2023-02-03T15:28:18;6.20;76.60
71668;DHT22;59504;54.806;9.640;2023-02-03T15:30:40;6.10;76.60
71668;DHT22;59504;54.806;9.640;2023-02-03T15:33:06;6.10;76.80
71668;DHT22;59504;54.806;9.640;2023-02-03T15:35:31;6.10;76.90
71668;DHT22;59504;54.806;9.640;2023-02-03T15:37:59;6.10;76.80
71668;DHT22;59504;54.806;9.640;2023-02-03T15:40:23;6.10;76.70
71668;DHT22;59504;54.806;9.640;2023-02-03T15:42:58;6.10;76.60
71668;DHT22;59504;54.806;9.640;2023-02-03T15:45:41;6.10;76.50
71668;DHT22;59504;54.806;9.640;2023-02-03T15:50:57;6.10;76.20
71668;DHT22;59504;54.806;9.640;2023-02-03T15:53:30;6.10;76.00
71668;DHT22;59504;54.806;9.640;2023-02-03T15:55:58;6.10;75.70
71668;DHT22;59504;54.806;9.640;2023-02-03T15:58:00;6.00;75.10
71668;DHT22;59504;54.806;9.640;2023-02-03T16:00:47;6.00;75.10
71668;DHT22;59504;54.806;9.640;2023-02-03T16:02:46;6.00;75.00
71668;DHT22;59504;54.806;9.640;2023-02-03T16:05:26;6.10;75.00
71668;DHT22;59504;54.806;9.640;2023-02-03T16:07:48;6.10;74.80
71668;DHT22;59504;54.806;9.640;2023-02-03T16:10:31;6.10;74.30
71668;DHT22;59504;54.806;9.640;2023-02-03T16:12:52;6.10;74.50
71668;DHT22;59504;54.806;9.640;2023-02-03T16:15:21;6.10;74.20
71668;DHT22;59504;54.806;9.640;2023-02-03T16:17:42;6.10;74.30
71668;DHT22;59504;54.806;9.640;2023-02-03T16:22:37;6.00;73.90
71668;DHT22;59504;54.806;9.640;2023-02-03T16:24:42;6.10;74.00
71668;DHT22;59504;54.806;9.640;2023-02-03T16:26:47;6.00;73.80
71668;DHT22;59504;54.806;9.640;2023-02-03T16:29:10;6.00;73.70
71668;DHT22;59504;54.806;9.640;2023-02-03T16:31:50;6.00;73.70
71668;DHT22;59504;54.806;9.640;2023-02-03T16:34:29;6.00;73.50
71668;DHT22;59504;54.806;9.640;2023-02-03T16:37:29;6.10;73.50
71668;DHT22;59504;54.806;9.640;2023-02-03T16:40:10;6.10;73.40
71668;DHT22;59504;54.806;9.640;2023-02-03T16:42:50;6.10;73.40
71668;DHT22;59504;54.806;9.640;2023-02-03T16:45:29;6.10;73.20
71668;DHT22;59504;54.806;9.640;2023-02-03T16:48:10;6.10;73.10
71668;DHT22;59504;54.806;9.640;2023-02-03T16:50:49;6.10;73.00
71668;DHT22;59504;54.806;9.640;2023-02-03T16:52:53;6.20;73.10
71668;DHT22;59504;54.806;9.640;2023-02-03T16:54:54;6.20;73.10
71668;DHT22;59504;54.806;9.640;2023-02-03T16:57:15;6.20;73.00
71668;DHT22;59504;54.806;9.640;2023-02-03T16:59:15;6.30;73.10
71668;DHT22;59504;54.806;9.640;2023-02-03T17:01:36;6.20;72.80
71668;DHT22;59504;54.806;9.640;2023-02-03T17:03:57;6.20;72.90
71668;DHT22;59504;54.806;9.640;2023-02-03T17:06:17;6.20;72.80
71668;DHT22;59504;54.806;9.640;2023-02-03T17:08:40;6.20;72.80
71668;DHT22;59504;54.806;9.640;2023-02-03T17:11:06;6.30;72.80
71668;DHT22;59504;54.806;9.640;2023-02-03T17:13:27;6.20;72.80
71668;DHT22;59504;54.806;9.640;2023-02-03T17:15:50;6.30;72.80
71668;DHT22;59504;54.806;9.640;2023-02-03T17:18:15;6.30;72.80
71668;DHT22;59504;54.806;9.640;2023-02-03T17:20:36;6.30;72.80
71668;DHT22;59504;54.806;9.640;2023-02-03T17:22:56;6.30;72.70
71668;DHT22;59504;54.806;9.640;2023-02-03T17:25:17;6.30;72.70
71668;DHT22;59504;54.806;9.640;2023-02-03T17:27:38;6.30;72.70
71668;DHT22;59504;54.806;9.640;2023-02-03T17:29:59;6.30;72.70
71668;DHT22;59504;54.806;9.640;2023-02-03T17:31:59;6.30;72.80
71668;DHT22;59504;54.806;9.640;2023-02-03T17:34:01;6.30;72.70
71668;DHT22;59504;54.806;9.640;2023-02-03T17:36:04;6.30;72.70
71668;DHT22;59504;54.806;9.640;2023-02-03T17:38:06;6.30;72.60
71668;DHT22;59504;54.806;9.640;2023-02-03T17:40:10;6.30;72.60